Time;durP1;ratioP1;P1;durP2;ratioP2;P2;SDS_P1;SDS_P2;PMS_P1;PMS_P2;Temp;Humidity;BMP_temperature;BMP_pressure;BME280_temperature;BME280_humidity;BME280_pressure;Samples;Min_cycle;Max_cycle;Signal;HPM_P1;HPM_P2
2021/08/07 00:00:53;;;;;;;12.88;4.05;;;;;;;17.25;nan;100567.09;6268358;22;20157;-47
2021/08/07 00:03:19;;;;;;;17.15;4.10;;;;;;;17.21;nan;100566.84;6268961;22;20004;-49
2021/08/07 00:05:44;;;;;;;76.85;7.40;;;;;;;17.18;nan;100562.03;6268566;22;20383;-47
2021/08/07 00:08:10;;;;;;;29.98;5.55;;;;;;;17.10;nan;100561.94;6246464;22;20012;-54
2021/08/07 00:10:36;;;;;;;8.85;4.18;;;;;;;16.91;nan;100567.38;6238233;23;20004;-54
2021/08/07 00:13:02;;;;;;;23.08;5.18;;;;;;;16.91;nan;100557.34;6237228;23;20054;-53
2021/08/07 00:15:28;;;;;;;6.82;3.88;;;;;;;16.88;nan;100560.66;6239068;23;20003;-51
2021/08/07 00:17:53;;;;;;;6.63;3.80;;;;;;;16.83;nan;100558.00;6235810;22;20008;-50
2021/08/07 00:20:19;;;;;;;4.90;4.20;;;;;;;16.83;nan;100560.72;6238093;23;20327;-50
2021/08/07 00:22:44;;;;;;;7.65;4.40;;;;;;;16.80;nan;100560.50;6236319;23;20086;-51
2021/08/07 00:25:10;;;;;;;5.18;3.70;;;;;;;16.73;nan;100571.69;6237390;23;20031;-53
2021/08/07 00:27:36;;;;;;;6.97;3.90;;;;;;;16.62;nan;100571.00;6211815;23;20000;-52
2021/08/07 00:30:04;;;;;;;8.48;4.40;;;;;;;16.61;nan;100580.22;6238168;23;20314;-54
2021/08/07 00:32:29;;;;;;;7.85;4.50;;;;;;;16.53;nan;100578.19;6238465;23;20342;-51
2021/08/07 00:34:55;;;;;;;7.00;4.28;;;;;;;16.51;nan;100582.25;6210802;23;20003;-53
2021/08/07 00:37:20;;;;;;;5.93;5.32;;;;;;;16.38;nan;100582.97;6238121;22;20294;-50
2021/08/07 00:39:46;;;;;;;7.47;4.95;;;;;;;16.31;nan;100584.13;6237948;23;20420;-51
2021/08/07 00:42:11;;;;;;;6.65;5.55;;;;;;;16.30;nan;100582.50;6237851;23;20531;-51
2021/08/07 00:44:37;;;;;;;7.35;5.47;;;;;;;16.19;nan;100585.66;6238284;23;20033;-52
2021/08/07 00:47:02;;;;;;;8.23;5.18;;;;;;;16.17;nan;100591.34;6238397;22;20004;-52
2021/08/07 00:49:28;;;;;;;7.60;4.90;;;;;;;16.17;nan;100593.25;6238055;23;20371;-53
2021/08/07 00:51:53;;;;;;;9.30;5.50;;;;;;;16.12;nan;100593.28;6236999;23;20004;-50
2021/08/07 00:54:19;;;;;;;8.55;5.65;;;;;;;16.12;nan;100598.69;6237719;23;19996;-51
2021/08/07 00:56:45;;;;;;;6.78;6.03;;;;;;;16.08;nan;100595.78;6238552;22;20003;-54
2021/08/07 00:59:10;;;;;;;6.45;5.53;;;;;;;16.07;nan;100591.47;6238141;23;20460;-53
2021/08/07 01:01:45;;;;;;;7.45;6.10;;;;;;;16.09;nan;100601.97;6238162;23;20000;-54
2021/08/07 01:04:21;;;;;;;;;;;;;;;15.91;nan;100598.13;6238009;23;20005;-51
2021/08/07 01:06:53;;;;;;;;;;;;;;;15.87;nan;100589.00;6239664;22;19903;-51
2021/08/07 01:09:43;;;;;;;14.02;6.10;;;;;;;15.92;nan;100587.03;6268614;22;20185;-51
2021/08/07 01:12:18;;;;;;;15.63;6.38;;;;;;;15.90;nan;100591.91;6267874;22;20466;-52
2021/08/07 01:14:45;;;;;;;9.48;5.90;;;;;;;15.85;nan;100583.88;6267804;22;20451;-54
2021/08/07 01:17:14;;;;;;;11.50;6.53;;;;;;;15.83;nan;100579.84;6269159;22;20049;-52
2021/08/07 01:20:13;;;;;;;7.55;5.50;;;;;;;15.76;nan;100577.47;6268773;22;20074;-52
2021/08/07 01:23:10;;;;;;;10.10;6.32;;;;;;;15.75;nan;100577.75;6267812;22;20090;-51
2021/08/07 01:26:10;;;;;;;10.85;6.22;;;;;;;15.67;nan;100577.31;6268618;22;20466;-52
2021/08/07 01:28:39;;;;;;;9.68;6.65;;;;;;;15.65;nan;100571.38;6262044;22;20374;-53
2021/08/07 01:31:08;;;;;;;8.38;6.30;;;;;;;15.60;nan;100574.13;6267737;22;20416;-53
2021/08/07 01:33:34;;;;;;;8.98;6.97;;;;;;;15.58;nan;100570.88;6268559;22;19999;-53
2021/08/07 01:36:02;;;;;;;8.05;6.63;;;;;;;15.58;nan;100576.28;6267955;22;20003;-54
2021/08/07 01:38:28;;;;;;;7.70;6.60;;;;;;;15.58;nan;100572.78;6268109;22;20010;-51
2021/08/07 01:40:53;;;;;;;10.20;6.85;;;;;;;15.58;nan;100578.16;6267613;22;20108;-51
2021/08/07 01:43:19;;;;;;;9.52;6.55;;;;;;;15.56;nan;100574.94;6267618;22;20004;-53
2021/08/07 01:45:46;;;;;;;10.10;7.47;;;;;;;15.54;nan;100577.13;6268063;22;20026;-51
2021/08/07 01:48:18;;;;;;;8.05;6.75;;;;;;;15.52;nan;100572.03;6267617;22;20021;-53
2021/08/07 01:50:50;;;;;;;9.23;8.13;;;;;;;15.41;nan;100574.00;6268532;22;20440;-53
2021/08/07 01:53:23;;;;;;;11.52;8.38;;;;;;;15.38;nan;100566.47;6267083;22;20331;-53
2021/08/07 01:55:56;;;;;;;10.82;7.82;;;;;;;15.39;nan;100565.38;6268236;22;20090;-54
2021/08/07 01:58:29;;;;;;;8.93;7.57;;;;;;;15.39;nan;100562.69;6267853;22;20399;-54
2021/08/07 02:00:55;;;;;;;10.32;8.45;;;;;;;15.38;nan;100560.28;6268090;22;20004;-53
2021/08/07 02:03:23;;;;;;;13.43;8.65;;;;;;;15.37;nan;100559.47;6267834;22;20119;-53
2021/08/07 02:05:50;;;;;;;9.95;7.88;;;;;;;15.35;nan;100553.56;6268205;22;20003;-54
2021/08/07 02:08:16;;;;;;;9.20;7.40;;;;;;;15.35;nan;100550.06;6267528;22;20435;-53
2021/08/07 02:10:45;;;;;;;15.73;8.05;;;;;;;15.32;nan;100543.34;6267711;22;20014;-54
2021/08/07 02:13:16;;;;;;;12.70;8.88;;;;;;;15.28;nan;100545.00;6266923;22;20082;-54
2021/08/07 02:15:45;;;;;;;9.85;8.13;;;;;;;15.19;nan;100554.78;6267480;22;20506;-51
2021/08/07 02:18:13;;;;;;;9.93;7.95;;;;;;;15.22;nan;100556.09;6267683;22;20218;-52
2021/08/07 02:20:43;;;;;;;11.57;8.07;;;;;;;15.21;nan;100552.59;6267058;22;20004;-51
2021/08/07 02:23:12;;;;;;;10.80;9.18;;;;;;;15.21;nan;100558.00;6266376;22;20014;-51
2021/08/07 02:25:38;;;;;;;10.65;8.57;;;;;;;15.25;nan;100552.81;6267752;22;20075;-51
2021/08/07 02:28:04;;;;;;;11.05;8.05;;;;;;;15.23;nan;100549.63;6267688;22;20082;-50
2021/08/07 02:30:31;;;;;;;9.35;7.85;;;;;;;15.24;nan;100552.03;6267857;22;20008;-51
2021/08/07 02:32:57;;;;;;;10.70;8.27;;;;;;;15.16;nan;100552.66;6266091;22;20027;-52
2021/08/07 02:35:23;;;;;;;9.98;7.53;;;;;;;15.20;nan;100558.28;6265809;22;20012;-51
2021/08/07 02:37:50;;;;;;;9.23;7.60;;;;;;;15.00;nan;100559.25;6267804;22;20073;-53
2021/08/07 02:40:16;;;;;;;10.73;8.07;;;;;;;15.02;nan;100559.78;6267208;22;20309;-51
2021/08/07 02:42:42;;;;;;;10.32;7.78;;;;;;;15.13;nan;100561.31;6267372;22;20065;-51
2021/08/07 02:45:09;;;;;;;9.15;8.00;;;;;;;15.21;nan;100558.00;6266426;22;20030;-50
2021/08/07 02:47:35;;;;;;;10.32;8.02;;;;;;;15.22;nan;100562.31;6267528;22;20038;-52
2021/08/07 02:50:05;;;;;;;10.38;7.38;;;;;;;15.26;nan;100560.66;6267504;22;20007;-52
2021/08/07 02:52:33;;;;;;;9.77;7.68;;;;;;;15.39;nan;100559.19;6267206;22;20256;-52
2021/08/07 02:55:00;;;;;;;11.57;7.95;;;;;;;15.36;nan;100546.25;6266640;22;20010;-53
2021/08/07 02:57:25;;;;;;;8.10;6.93;;;;;;;15.38;nan;100552.97;6267205;22;20029;-53
2021/08/07 02:59:51;;;;;;;10.32;7.72;;;;;;;15.43;nan;100555.63;6267160;22;20053;-51
2021/08/07 03:02:16;;;;;;;8.77;7.32;;;;;;;15.42;nan;100551.31;6267054;22;20396;-52
2021/08/07 03:04:42;;;;;;;10.43;7.88;;;;;;;15.32;nan;100550.63;6266691;22;20014;-53
2021/08/07 03:07:07;;;;;;;9.70;7.53;;;;;;;15.14;nan;100557.53;6267436;22;20090;-53
2021/08/07 03:09:33;;;;;;;8.60;7.18;;;;;;;15.25;nan;100550.13;6267695;22;20007;-53
2021/08/07 03:11:58;;;;;;;9.40;7.88;;;;;;;15.24;nan;100553.91;6240048;22;20018;-53
2021/08/07 03:14:23;;;;;;;9.82;7.43;;;;;;;15.24;nan;100562.00;6266232;22;20536;-51
2021/08/07 03:16:49;;;;;;;9.00;7.13;;;;;;;15.37;nan;100561.38;6267750;22;20045;-54
2021/08/07 03:19:14;;;;;;;8.98;7.30;;;;;;;15.47;nan;100561.28;6267649;22;20007;-51
2021/08/07 03:21:40;;;;;;;7.85;6.93;;;;;;;15.53;nan;100559.31;6267702;22;20398;-52
2021/08/07 03:24:05;;;;;;;9.18;6.82;;;;;;;15.53;nan;100559.31;6266123;22;20006;-50
2021/08/07 03:26:31;;;;;;;9.15;6.80;;;;;;;15.58;nan;100561.97;6267683;22;20081;-51
2021/08/07 03:28:57;;;;;;;8.15;6.30;;;;;;;15.61;nan;100566.81;6268143;22;20012;-52
2021/08/07 03:31:22;;;;;;;7.75;6.75;;;;;;;15.66;nan;100562.19;6269282;22;20297;-52
2021/08/07 03:33:48;;;;;;;7.80;6.90;;;;;;;15.70;nan;100565.13;6269134;22;19995;-52
2021/08/07 03:36:14;;;;;;;7.63;6.78;;;;;;;15.77;nan;100564.78;6268315;22;20054;-51
2021/08/07 03:38:39;;;;;;;8.60;7.13;;;;;;;15.79;nan;100563.38;6269304;22;20011;-50
2021/08/07 03:41:05;;;;;;;9.68;7.07;;;;;;;15.91;nan;100571.09;6268547;22;20086;-51
2021/08/07 03:43:30;;;;;;;10.20;7.10;;;;;;;15.91;nan;100566.50;6269123;22;20347;-51
2021/08/07 03:45:56;;;;;;;9.63;6.90;;;;;;;15.96;nan;100573.75;6269317;22;20004;-51
2021/08/07 03:48:21;;;;;;;9.10;7.22;;;;;;;15.93;nan;100571.63;6269168;22;20014;-53
2021/08/07 03:50:47;;;;;;;8.45;6.90;;;;;;;15.93;nan;100568.91;6268269;22;20006;-52
2021/08/07 03:53:12;;;;;;;9.35;7.70;;;;;;;16.00;nan;100564.78;6268303;22;20238;-52
2021/08/07 03:55:38;;;;;;;9.82;7.50;;;;;;;16.04;nan;100567.72;6269809;22;20084;-53
2021/08/07 03:58:04;;;;;;;8.95;7.22;;;;;;;15.92;nan;100568.13;6268988;22;20014;-54
2021/08/07 04:00:31;;;;;;;8.25;7.28;;;;;;;16.04;nan;100567.72;6269247;22;20510;-50
2021/08/07 04:02:57;;;;;;;9.57;7.47;;;;;;;15.97;nan;100564.53;6268194;22;20118;-53
2021/08/07 04:05:23;;;;;;;13.90;8.70;;;;;;;16.07;nan;100574.44;6268661;22;20087;-52
2021/08/07 04:07:49;;;;;;;12.20;8.90;;;;;;;16.09;nan;100586.56;6268752;22;20031;-54
2021/08/07 04:10:16;;;;;;;13.70;9.13;;;;;;;16.06;nan;100578.22;6268821;22;20010;-51
2021/08/07 04:12:43;;;;;;;17.35;10.40;;;;;;;16.06;nan;100579.03;6268845;22;20443;-53
2021/08/07 04:15:10;;;;;;;15.55;9.65;;;;;;;16.15;nan;100584.59;6268636;22;20008;-51
2021/08/07 04:17:37;;;;;;;11.40;8.95;;;;;;;16.14;nan;100586.50;6269532;22;20033;-52
2021/08/07 04:20:08;;;;;;;9.70;8.30;;;;;;;16.21;nan;100591.56;6268847;22;20011;-52
2021/08/07 04:22:34;;;;;;;14.30;9.57;;;;;;;15.93;nan;100582.44;6269031;22;20004;-52
2021/08/07 04:24:59;;;;;;;11.13;7.75;;;;;;;16.11;nan;100583.56;6268399;22;20004;-50
2021/08/07 04:27:25;;;;;;;11.05;8.55;;;;;;;16.14;nan;100574.88;6268714;22;20008;-51
2021/08/07 04:29:51;;;;;;;10.38;8.05;;;;;;;16.16;nan;100584.34;6269127;22;20085;-53
2021/08/07 04:32:17;;;;;;;16.95;8.73;;;;;;;16.23;nan;100581.28;6268700;22;20366;-51
2021/08/07 04:34:44;;;;;;;11.02;8.80;;;;;;;16.27;nan;100583.09;6268713;22;20313;-53
2021/08/07 04:37:09;;;;;;;9.73;8.05;;;;;;;16.39;nan;100584.59;6268380;22;20012;-51
2021/08/07 04:39:35;;;;;;;12.30;8.90;;;;;;;16.47;nan;100586.63;6269294;22;20057;-54
2021/08/07 04:42:01;;;;;;;9.85;8.35;;;;;;;16.42;nan;100582.09;6268727;22;20170;-53
2021/08/07 04:44:26;;;;;;;9.73;7.80;;;;;;;16.49;nan;100579.81;6268122;22;20000;-51
2021/08/07 04:46:52;;;;;;;11.77;8.13;;;;;;;16.47;nan;100570.41;6268122;22;20447;-53
2021/08/07 04:49:17;;;;;;;13.40;7.90;;;;;;;16.53;nan;100572.75;6269234;22;19996;-51
2021/08/07 04:51:43;;;;;;;14.10;10.15;;;;;;;16.53;nan;100580.88;6269071;22;20488;-54
2021/08/07 04:54:12;;;;;;;16.20;9.40;;;;;;;16.54;nan;100574.38;6267850;22;20004;-53
2021/08/07 04:56:37;;;;;;;12.30;9.40;;;;;;;16.50;nan;100578.72;6268708;22;20550;-51
2021/08/07 04:59:03;;;;;;;12.23;9.77;;;;;;;16.78;nan;100570.81;6268887;22;20031;-53
2021/08/07 05:01:29;;;;;;;14.32;9.57;;;;;;;16.92;nan;100566.28;6268191;22;20078;-52
2021/08/07 05:03:54;;;;;;;16.40;10.32;;;;;;;16.87;nan;100567.13;6268165;22;20058;-50
2021/08/07 05:06:20;;;;;;;12.20;8.95;;;;;;;16.76;nan;100568.41;6269081;22;20004;-51
2021/08/07 05:08:45;;;;;;;13.52;9.40;;;;;;;16.74;nan;100572.50;6268566;22;20081;-53
2021/08/07 05:11:11;;;;;;;12.85;9.73;;;;;;;16.83;nan;100570.72;6268909;22;20003;-52
2021/08/07 05:13:36;;;;;;;12.82;9.80;;;;;;;16.91;nan;100579.00;6268336;22;19996;-54
2021/08/07 05:16:02;;;;;;;11.68;9.60;;;;;;;17.06;nan;100579.88;6268306;22;20008;-53
2021/08/07 05:18:27;;;;;;;15.30;9.88;;;;;;;17.29;nan;100578.94;6268376;22;20464;-53
2021/08/07 05:20:53;;;;;;;12.38;9.43;;;;;;;17.41;nan;100589.28;6267658;22;20034;-51
2021/08/07 05:23:18;;;;;;;11.68;8.75;;;;;;;17.47;nan;100583.50;6266778;22;20000;-54
2021/08/07 05:25:45;;;;;;;13.10;8.85;;;;;;;17.49;nan;100588.59;6268697;22;20069;-51
2021/08/07 05:28:12;;;;;;;11.00;8.73;;;;;;;17.48;nan;100585.09;6267947;22;20015;-53
2021/08/07 05:30:37;;;;;;;13.15;10.13;;;;;;;17.36;nan;100589.38;6268933;22;20077;-53
2021/08/07 05:33:03;;;;;;;12.25;10.57;;;;;;;17.13;nan;100586.50;6267636;22;20003;-51
2021/08/07 05:35:28;;;;;;;15.10;11.18;;;;;;;17.14;nan;100584.59;6268488;22;20006;-51
2021/08/07 05:37:54;;;;;;;13.77;10.38;;;;;;;17.20;nan;100592.31;6267162;22;20007;-51
2021/08/07 05:40:19;;;;;;;15.38;10.90;;;;;;;17.25;nan;100599.59;6268175;22;20424;-51
2021/08/07 05:42:45;;;;;;;12.82;9.95;;;;;;;17.38;nan;100603.41;6268011;22;20011;-51
2021/08/07 05:45:11;;;;;;;10.75;8.85;;;;;;;17.44;nan;100603.06;6267666;22;20435;-52
2021/08/07 05:47:36;;;;;;;13.02;10.40;;;;;;;17.43;nan;100600.63;6267991;22;20439;-54
2021/08/07 05:50:03;;;;;;;13.48;10.10;;;;;;;17.37;nan;100597.19;6267749;22;20083;-51
2021/08/07 05:52:29;;;;;;;11.18;9.55;;;;;;;17.18;nan;100601.84;6268099;22;20023;-50
2021/08/07 05:54:56;;;;;;;13.73;10.75;;;;;;;17.14;nan;100615.19;6266786;22;20003;-51
2021/08/07 05:57:22;;;;;;;12.20;9.90;;;;;;;17.28;nan;100609.00;6268326;22;20003;-54
2021/08/07 05:59:47;;;;;;;13.45;9.93;;;;;;;17.42;nan;100610.66;6268082;22;20325;-53
2021/08/07 06:02:13;;;;;;;13.70;11.07;;;;;;;17.37;nan;100608.03;6267449;22;20004;-52
2021/08/07 06:04:38;;;;;;;14.55;9.77;;;;;;;17.44;nan;100613.09;6267856;22;20388;-50
2021/08/07 06:07:03;;;;;;;9.32;8.35;;;;;;;17.70;nan;100616.97;6266035;22;20126;-53
2021/08/07 06:09:29;;;;;;;9.10;8.15;;;;;;;17.92;nan;100616.28;6267475;22;20004;-51
2021/08/07 06:11:55;;;;;;;10.48;7.57;;;;;;;18.13;nan;100616.69;6266664;22;20004;-52
2021/08/07 06:14:21;;;;;;;10.40;7.78;;;;;;;18.16;nan;100616.13;6266886;22;20462;-53
2021/08/07 06:16:46;;;;;;;10.63;7.70;;;;;;;18.47;nan;100623.59;6267401;22;20007;-52
2021/08/07 06:19:12;;;;;;;9.18;8.27;;;;;;;18.19;nan;100620.13;6267439;22;20012;-51
2021/08/07 06:21:37;;;;;;;9.20;7.82;;;;;;;18.58;nan;100625.00;6266754;22;20003;-52
2021/08/07 06:24:03;;;;;;;8.35;7.30;;;;;;;18.73;nan;100623.91;6238635;22;20330;-53
2021/08/07 06:26:29;;;;;;;8.65;7.10;;;;;;;18.97;nan;100622.53;6267698;22;20003;-53
2021/08/07 06:28:55;;;;;;;9.82;7.40;;;;;;;19.16;nan;100627.78;6267009;22;20007;-53
2021/08/07 06:31:20;;;;;;;9.73;6.80;;;;;;;19.25;nan;100625.13;6265677;22;20082;-52
2021/08/07 06:33:46;;;;;;;9.55;7.32;;;;;;;19.26;nan;100624.03;6266250;22;20353;-51
2021/08/07 06:36:12;;;;;;;8.75;6.97;;;;;;;19.39;nan;100625.06;6267272;22;20011;-53
2021/08/07 06:38:37;;;;;;;7.40;6.60;;;;;;;19.36;nan;100629.19;6240108;22;20033;-51
2021/08/07 06:41:03;;;;;;;8.55;6.70;;;;;;;18.89;nan;100636.84;6238640;22;20447;-52
2021/08/07 06:43:29;;;;;;;9.55;7.07;;;;;;;19.42;nan;100638.84;6266654;22;20071;-52
2021/08/07 06:45:55;;;;;;;6.85;6.13;;;;;;;19.60;nan;100640.59;6267160;22;20384;-53
2021/08/07 06:48:21;;;;;;;8.82;6.50;;;;;;;19.68;nan;100632.78;6265658;22;20061;-53
2021/08/07 06:50:47;;;;;;;10.20;7.07;;;;;;;20.04;nan;100646.22;6266658;22;20289;-53
2021/08/07 06:53:12;;;;;;;7.18;6.05;;;;;;;20.13;nan;100642.44;6239124;22;20003;-52
2021/08/07 06:55:38;;;;;;;8.70;5.80;;;;;;;20.24;nan;100640.22;6267458;22;20007;-54
2021/08/07 06:58:04;;;;;;;6.45;5.70;;;;;;;20.48;nan;100645.31;6266860;22;20014;-54
2021/08/07 07:00:29;;;;;;;8.48;5.93;;;;;;;20.63;nan;100639.38;6265945;22;20374;-53
2021/08/07 07:02:55;;;;;;;6.60;6.00;;;;;;;20.48;nan;100640.66;6266763;22;20339;-53
2021/08/07 07:05:20;;;;;;;5.68;4.90;;;;;;;20.32;nan;100638.66;6266312;22;20027;-52
2021/08/07 07:07:46;;;;;;;7.55;5.05;;;;;;;20.65;nan;100637.16;6239117;22;20027;-53
2021/08/07 07:10:13;;;;;;;4.88;4.43;;;;;;;20.85;nan;100645.84;6267034;22;20008;-52
2021/08/07 07:12:40;;;;;;;5.10;4.60;;;;;;;20.98;nan;100636.69;6266682;22;20094;-54
2021/08/07 07:15:07;;;;;;;5.63;4.63;;;;;;;20.97;nan;100646.00;6239250;22;20006;-52
2021/08/07 07:17:32;;;;;;;6.18;5.20;;;;;;;20.93;nan;100647.75;6266686;22;20008;-53
2021/08/07 07:20:00;;;;;;;5.65;4.65;;;;;;;21.07;nan;100637.50;6266742;22;20026;-53
2021/08/07 07:22:26;;;;;;;7.35;4.45;;;;;;;21.34;nan;100645.34;6261873;22;20003;-54
2021/08/07 07:24:51;;;;;;;7.20;4.10;;;;;;;21.55;nan;100642.00;6263896;22;20567;-53
2021/08/07 07:27:16;;;;;;;4.60;3.85;;;;;;;21.71;nan;100635.66;6261426;22;20008;-54
2021/08/07 07:29:42;;;;;;;4.07;3.13;;;;;;;21.79;nan;100631.31;6264817;22;20339;-53
2021/08/07 07:32:09;;;;;;;6.20;3.10;;;;;;;21.79;nan;100625.88;6264231;22;20004;-53
2021/08/07 07:34:38;;;;;;;4.25;2.75;;;;;;;22.01;nan;100633.78;6264074;22;20006;-53
2021/08/07 07:37:06;;;;;;;5.43;3.40;;;;;;;22.16;nan;100631.69;6264627;22;20014;-54
2021/08/07 07:39:32;;;;;;;3.65;3.03;;;;;;;22.16;nan;100639.88;6265673;22;20042;-51
2021/08/07 07:41:58;;;;;;;3.15;2.85;;;;;;;21.91;nan;100639.63;6263081;22;20403;-53
2021/08/07 07:44:23;;;;;;;3.10;2.50;;;;;;;22.30;nan;100637.72;6264351;22;20011;-54
2021/08/07 07:46:49;;;;;;;3.13;2.83;;;;;;;22.43;nan;100638.59;6237825;22;20031;-52
2021/08/07 07:49:14;;;;;;;4.53;2.97;;;;;;;;;;6265631;22;20485;-53
2021/08/07 07:51:40;;;;;;;3.03;2.67;;;;;;;22.27;nan;100646.56;6266757;22;20046;-52
2021/08/07 07:54:05;;;;;;;4.50;2.92;;;;;;;22.11;nan;100646.31;6266237;22;20004;-51
2021/08/07 07:56:31;;;;;;;3.90;3.00;;;;;;;22.38;nan;100649.72;6266398;22;20431;-54
2021/08/07 07:58:56;;;;;;;5.13;3.33;;;;;;;22.63;nan;100658.91;6266492;22;20031;-53
2021/08/07 08:01:22;;;;;;;4.30;2.72;;;;;;;22.46;nan;100655.13;6238968;22;20011;-53
2021/08/07 08:03:47;;;;;;;4.20;2.80;;;;;;;22.77;nan;100656.69;6265144;22;20326;-53
2021/08/07 08:06:13;;;;;;;5.45;2.72;;;;;;;22.91;nan;100651.81;6266319;22;20007;-53
2021/08/07 08:08:39;;;;;;;3.67;2.70;;;;;;;22.81;nan;100655.72;6265893;22;20138;-54
2021/08/07 08:11:05;;;;;;;5.13;2.85;;;;;;;22.94;nan;100648.41;6266625;22;20007;-53
2021/08/07 08:13:30;;;;;;;9.05;2.97;;;;;;;23.15;nan;100654.66;6266891;22;20000;-53
2021/08/07 08:15:56;;;;;;;4.05;2.60;;;;;;;23.44;nan;100655.69;6268639;22;20414;-54
2021/08/07 08:18:21;;;;;;;3.70;2.70;;;;;;;23.27;nan;100655.84;6269278;22;20608;-52
2021/08/07 08:20:48;;;;;;;3.97;2.50;;;;;;;23.46;nan;100648.75;6268211;22;20031;-54
2021/08/07 08:23:14;;;;;;;3.67;2.20;;;;;;;23.66;nan;100649.84;6267890;22;20007;-54
2021/08/07 08:25:39;;;;;;;2.53;2.33;;;;;;;22.97;nan;100646.94;6268364;22;20004;-50
2021/08/07 08:28:05;;;;;;;3.08;2.10;;;;;;;23.12;nan;100649.06;6268983;22;19999;-52
2021/08/07 08:30:32;;;;;;;3.03;1.90;;;;;;;23.48;nan;100649.19;6268265;22;20292;-53
2021/08/07 08:32:57;;;;;;;5.93;2.42;;;;;;;23.90;nan;100637.38;6240171;22;20050;-55
2021/08/07 08:35:23;;;;;;;2.72;2.03;;;;;;;23.79;nan;100645.22;6267267;22;20029;-51
2021/08/07 08:37:49;;;;;;;1.85;1.75;;;;;;;24.03;nan;100644.44;6267665;22;20000;-52
2021/08/07 08:40:15;;;;;;;1.80;1.60;;;;;;;24.56;nan;100631.66;6268181;22;20031;-54
2021/08/07 08:42:41;;;;;;;1.70;1.60;;;;;;;24.76;nan;100643.63;6267949;22;20010;-54
2021/08/07 08:45:08;;;;;;;1.80;1.60;;;;;;;25.03;nan;100647.59;6267633;22;20065;-53
2021/08/07 08:47:35;;;;;;;2.58;1.83;;;;;;;25.02;nan;100640.50;6267541;22;20362;-54
2021/08/07 08:50:01;;;;;;;3.47;1.90;;;;;;;25.16;nan;100651.88;6265119;22;20448;-54
2021/08/07 08:52:29;;;;;;;2.40;1.80;;;;;;;24.94;nan;100645.72;6267762;22;20079;-52
2021/08/07 08:54:55;;;;;;;2.38;1.77;;;;;;;25.28;nan;100649.06;6267414;22;20003;-53
2021/08/07 08:57:22;;;;;;;1.58;1.48;;;;;;;25.33;nan;100650.78;6268038;22;20003;-51
2021/08/07 08:59:48;;;;;;;2.40;1.70;;;;;;;25.47;nan;100654.69;6267994;22;19999;-52
2021/08/07 09:02:13;;;;;;;3.28;1.52;;;;;;;25.33;nan;100654.34;6268209;22;20018;-51
2021/08/07 09:04:39;;;;;;;1.98;1.60;;;;;;;25.65;nan;100648.88;6241035;22;20115;-53
2021/08/07 09:07:05;;;;;;;2.30;1.40;;;;;;;25.85;nan;100636.91;6266863;22;20363;-51
2021/08/07 09:09:41;;;;;;;1.40;1.30;;;;;;;25.69;nan;100639.66;6268235;22;20008;-52
2021/08/07 09:12:08;;;;;;;3.20;1.50;;;;;;;25.49;nan;100635.94;6267863;22;20035;-52
2021/08/07 09:14:42;;;;;;;3.30;1.73;;;;;;;25.30;nan;100644.03;6267989;22;20000;-54
2021/08/07 09:17:17;;;;;;;2.50;1.70;;;;;;;25.41;nan;100644.34;6265668;22;20394;-53
2021/08/07 09:19:42;;;;;;;2.20;2.00;;;;;;;25.81;nan;100638.75;6268410;22;20007;-52
2021/08/07 09:22:13;;;;;;;2.42;1.30;;;;;;;25.21;nan;100646.94;6267487;22;20034;-54
2021/08/07 09:25:23;;;;;;;1.55;1.45;;;;;;;24.88;nan;100641.66;6267697;22;20382;-55
2021/08/07 09:27:51;;;;;;;2.00;1.60;;;;;;;25.45;nan;100643.28;6268055;22;20435;-53
2021/08/07 09:30:16;;;;;;;1.48;1.23;;;;;;;25.33;nan;100643.34;6267501;22;20005;-52
2021/08/07 09:33:07;;;;;;;3.03;1.30;;;;;;;25.86;nan;100638.50;6240737;22;20104;-53
2021/08/07 09:35:40;;;;;;;2.42;1.27;;;;;;;26.05;nan;100638.59;6267762;22;20014;-54
2021/08/07 09:38:05;;;;;;;4.50;1.50;;;;;;;26.23;nan;100633.53;6267361;22;20003;-52
2021/08/07 09:40:42;;;;;;;2.13;1.58;;;;;;;26.34;nan;100633.78;6268325;22;20004;-51
2021/08/07 09:43:08;;;;;;;2.03;1.60;;;;;;;25.77;nan;100643.38;6267012;22;20004;-53
2021/08/07 09:45:34;;;;;;;4.03;1.55;;;;;;;25.59;nan;100640.91;6267631;22;20069;-52
2021/08/07 09:48:20;;;;;;;3.05;1.58;;;;;;;25.74;nan;100633.91;6266487;22;20007;-50
2021/08/07 09:50:46;;;;;;;1.58;1.45;;;;;;;26.20;nan;100624.03;6267531;22;20052;-50
2021/08/07 09:53:20;;;;;;;1.63;1.50;;;;;;;26.06;nan;100639.41;6268087;22;20090;-53
2021/08/07 09:56:12;;;;;;;2.30;1.33;;;;;;;26.09;nan;100633.19;6267642;22;20004;-49
2021/08/07 09:58:37;;;;;;;2.28;1.35;;;;;;;25.88;nan;100645.25;6263354;22;20007;-50
2021/08/07 10:01:04;;;;;;;4.88;1.60;;;;;;;25.47;nan;100645.66;6266948;22;20065;-53
2021/08/07 10:03:32;;;;;;;4.72;2.13;;;;;;;25.17;nan;100648.78;6267725;22;20007;-51
2021/08/07 10:06:19;;;;;;;3.83;1.65;;;;;;;25.19;nan;100651.19;6267533;22;20149;-54
2021/08/07 10:08:50;;;;;;;3.25;1.42;;;;;;;25.05;nan;100639.81;6267725;22;20008;-54
2021/08/07 10:11:19;;;;;;;2.03;1.77;;;;;;;25.15;nan;100645.59;6264239;22;20026;-52
2021/08/07 10:13:46;;;;;;;2.72;1.60;;;;;;;25.02;nan;100646.00;6265102;22;20004;-53
2021/08/07 10:16:14;;;;;;;3.47;1.80;;;;;;;24.87;nan;100642.81;6267412;22;20007;-54
2021/08/07 10:18:42;;;;;;;2.78;1.52;;;;;;;24.82;nan;100636.78;6241499;22;20463;-50
2021/08/07 10:21:09;;;;;;;1.70;1.60;;;;;;;25.21;nan;100635.97;6268690;22;20179;-51
2021/08/07 10:23:35;;;;;;;2.72;1.70;;;;;;;25.86;nan;100622.84;6268033;22;20065;-53
2021/08/07 10:26:03;;;;;;;1.77;1.30;;;;;;;26.28;nan;100621.47;6268668;22;20015;-52
2021/08/07 10:28:35;;;;;;;3.17;1.50;;;;;;;26.39;nan;100617.88;6241718;22;20014;-53
2021/08/07 10:31:02;;;;;;;8.70;6.93;;;;;;;26.22;nan;100620.16;6268331;22;20003;-53
2021/08/07 10:33:29;;;;;;;4.22;1.85;;;;;;;26.30;nan;100611.72;6268613;22;20019;-51
2021/08/07 10:35:57;;;;;;;6.72;4.40;;;;;;;26.39;nan;100611.53;6268060;22;20004;-49
2021/08/07 10:38:23;;;;;;;6.63;3.15;;;;;;;26.79;nan;100617.56;6241423;22;20063;-53
2021/08/07 10:40:49;;;;;;;2.78;2.20;;;;;;;26.87;nan;100602.00;6268528;22;20004;-52
2021/08/07 10:43:18;;;;;;;7.13;3.88;;;;;;;26.34;nan;100606.31;6269040;22;20031;-53
2021/08/07 10:45:44;;;;;;;9.27;6.03;;;;;;;25.84;nan;100602.38;6267679;22;20007;-51
2021/08/07 10:48:39;;;;;;;7.25;5.35;;;;;;;26.76;nan;100599.03;6268159;22;20343;-50
2021/08/07 10:51:24;;;;;;;1.88;1.60;;;;;;;25.55;nan;100603.59;6267463;22;20032;-52
2021/08/07 10:53:54;;;;;;;1.63;1.48;;;;;;;25.84;nan;100605.13;6268499;22;19996;-51
2021/08/07 10:56:25;;;;;;;3.28;1.75;;;;;;;26.82;nan;100588.53;6268740;22;20517;-50
2021/08/07 10:58:51;;;;;;;2.03;1.23;;;;;;;26.93;nan;100599.75;6268524;22;20448;-53
2021/08/07 11:01:26;;;;;;;1.80;1.05;;;;;;;26.55;nan;100600.50;6268252;22;20014;-49
2021/08/07 11:04:00;;;;;;;2.88;1.38;;;;;;;26.36;nan;100598.53;6267790;22;20004;-54
2021/08/07 11:06:49;;;;;;;1.83;1.30;;;;;;;26.20;nan;100601.28;6268612;22;20056;-49
2021/08/07 11:09:14;;;;;;;2.22;1.35;;;;;;;26.66;nan;100601.56;6268084;22;20003;-52
2021/08/07 11:11:41;;;;;;;1.40;1.30;;;;;;;26.78;nan;100593.97;6266407;22;20374;-51
2021/08/07 11:14:21;;;;;;;2.63;1.30;;;;;;;26.59;nan;100595.91;6266903;22;20067;-50
2021/08/07 11:17:02;;;;;;;2.13;1.25;;;;;;;27.01;nan;100596.03;6264678;22;20015;-53
2021/08/07 11:19:48;;;;;;;1.25;1.10;;;;;;;27.21;nan;100594.84;6265685;22;20011;-52
2021/08/07 11:22:35;;;;;;;1.45;1.20;;;;;;;26.76;nan;100579.00;6264741;22;20467;-50
2021/08/07 11:25:19;;;;;;;2.03;1.50;;;;;;;27.06;nan;100587.47;6202690;22;20064;-49
2021/08/07 11:27:45;;;;;;;1.60;1.20;;;;;;;26.77;nan;100586.88;6265033;22;20039;-53
2021/08/07 11:30:22;;;;;;;1.88;1.20;;;;;;;26.82;nan;100587.75;6264564;22;20035;-52
2021/08/07 11:33:06;;;;;;;1.73;1.30;;;;;;;26.66;nan;100594.09;6265280;22;20004;-53
2021/08/07 11:35:34;;;;;;;1.53;1.33;;;;;;;27.20;nan;100576.75;6264242;22;20010;-50
2021/08/07 11:38:10;;;;;;;2.85;1.25;;;;;;;27.60;nan;100568.03;6264567;22;20011;-53
2021/08/07 11:40:50;;;;;;;1.27;1.17;;;;;;;28.06;nan;100561.72;6237324;22;20017;-50
2021/08/07 11:43:25;;;;;;;1.90;1.55;;;;;;;28.17;nan;100562.63;6264476;22;20130;-52